sensor_id;sensor_type;location;lat;lon;timestamp;temperature;humidity
71082;SHT31;58740;50.672;18.690;2023-03-14T00:01:17;7.93;65.42
71082;SHT31;58740;50.672;18.690;2023-03-14T00:03:47;7.91;65.63
71082;SHT31;58740;50.672;18.690;2023-03-14T00:06:15;7.91;65.67
71082;SHT31;58740;50.672;18.690;2023-03-14T00:08:45;7.91;65.76
71082;SHT31;58740;50.672;18.690;2023-03-14T00:11:17;7.87;65.49
71082;SHT31;58740;50.672;18.690;2023-03-14T00:13:48;7.87;65.75
71082;SHT31;58740;50.672;18.690;2023-03-14T00:16:17;7.85;65.74
71082;SHT31;58740;50.672;18.690;2023-03-14T00:18:46;7.83;65.87
71082;SHT31;58740;50.672;18.690;2023-03-14T00:21:14;7.80;65.96
71082;SHT31;58740;50.672;18.690;2023-03-14T00:23:42;7.78;66.00
71082;SHT31;58740;50.672;18.690;2023-03-14T00:26:14;7.75;66.03
71082;SHT31;58740;50.672;18.690;2023-03-14T00:28:45;7.71;66.17
71082;SHT31;58740;50.672;18.690;2023-03-14T00:31:14;7.68;66.45
71082;SHT31;58740;50.672;18.690;2023-03-14T00:33:43;7.64;66.32
71082;SHT31;58740;50.672;18.690;2023-03-14T00:36:13;7.62;66.41
71082;SHT31;58740;50.672;18.690;2023-03-14T00:38:44;7.58;66.34
71082;SHT31;58740;50.672;18.690;2023-03-14T00:41:16;7.51;66.48
71082;SHT31;58740;50.672;18.690;2023-03-14T00:43:47;7.45;66.54
71082;SHT31;58740;50.672;18.690;2023-03-14T00:46:16;7.40;66.67
71082;SHT31;58740;50.672;18.690;2023-03-14T00:48:44;7.37;66.66
71082;SHT31;58740;50.672;18.690;2023-03-14T00:51:13;7.34;66.70
71082;SHT31;58740;50.672;18.690;2023-03-14T00:53:42;7.32;66.74
71082;SHT31;58740;50.672;18.690;2023-03-14T00:56:11;7.31;66.70
71082;SHT31;58740;50.672;18.690;2023-03-14T00:58:40;7.28;66.76
71082;SHT31;58740;50.672;18.690;2023-03-14T01:01:09;7.22;66.77
71082;SHT31;58740;50.672;18.690;2023-03-14T01:03:41;7.19;66.82
71082;SHT31;58740;50.672;18.690;2023-03-14T01:08:47;7.16;66.81
71082;SHT31;58740;50.672;18.690;2023-03-14T01:11:34;7.11;67.07
71082;SHT31;58740;50.672;18.690;2023-03-14T01:14:03;7.08;67.23
71082;SHT31;58740;50.672;18.690;2023-03-14T01:16:34;7.04;67.26
71082;SHT31;58740;50.672;18.690;2023-03-14T01:19:03;7.01;67.30
71082;SHT31;58740;50.672;18.690;2023-03-14T01:21:32;7.00;67.35
71082;SHT31;58740;50.672;18.690;2023-03-14T01:24:03;6.99;67.57
71082;SHT31;58740;50.672;18.690;2023-03-14T01:26:34;7.02;67.62
71082;SHT31;58740;50.672;18.690;2023-03-14T01:29:02;7.06;67.61
71082;SHT31;58740;50.672;18.690;2023-03-14T01:31:31;7.10;67.62
71082;SHT31;58740;50.672;18.690;2023-03-14T01:33:59;7.14;67.65
71082;SHT31;58740;50.672;18.690;2023-03-14T01:36:27;7.17;67.56
71082;SHT31;58740;50.672;18.690;2023-03-14T01:38:58;7.19;67.58
71082;SHT31;58740;50.672;18.690;2023-03-14T01:41:25;7.19;67.55
71082;SHT31;58740;50.672;18.690;2023-03-14T01:43:54;7.17;67.55
71082;SHT31;58740;50.672;18.690;2023-03-14T01:51:44;7.09;67.80
71082;SHT31;58740;50.672;18.690;2023-03-14T01:57:28;7.04;68.01
71082;SHT31;58740;50.672;18.690;2023-03-14T02:00:05;7.03;67.86
71082;SHT31;58740;50.672;18.690;2023-03-14T02:02:41;7.03;67.71
71082;SHT31;58740;50.672;18.690;2023-03-14T02:05:16;7.04;67.72
71082;SHT31;58740;50.672;18.690;2023-03-14T02:07:53;7.04;67.83
71082;SHT31;58740;50.672;18.690;2023-03-14T02:10:26;7.07;67.80
71082;SHT31;58740;50.672;18.690;2023-03-14T02:12:59;7.10;67.89
71082;SHT31;58740;50.672;18.690;2023-03-14T02:15:30;7.11;68.00
71082;SHT31;58740;50.672;18.690;2023-03-14T02:17:59;7.11;67.91
71082;SHT31;58740;50.672;18.690;2023-03-14T02:23:09;7.13;67.80
71082;SHT31;58740;50.672;18.690;2023-03-14T02:28:09;7.16;67.90
71082;SHT31;58740;50.672;18.690;2023-03-14T02:30:38;7.18;67.98
71082;SHT31;58740;50.672;18.690;2023-03-14T02:33:10;7.17;67.90
71082;SHT31;58740;50.672;18.690;2023-03-14T02:35:46;7.15;67.93
71082;SHT31;58740;50.672;18.690;2023-03-14T02:41:01;7.06;67.99
71082;SHT31;58740;50.672;18.690;2023-03-14T02:43:29;7.01;67.97
71082;SHT31;58740;50.672;18.690;2023-03-14T02:45:57;6.93;68.17
71082;SHT31;58740;50.672;18.690;2023-03-14T02:48:32;6.89;68.40
71082;SHT31;58740;50.672;18.690;2023-03-14T02:51:08;6.84;68.52
71082;SHT31;58740;50.672;18.690;2023-03-14T02:53:36;6.81;68.59
71082;SHT31;58740;50.672;18.690;2023-03-14T02:56:06;6.81;68.62
71082;SHT31;58740;50.672;18.690;2023-03-14T02:58:35;6.83;68.61
71082;SHT31;58740;50.672;18.690;2023-03-14T03:01:03;6.83;68.61
71082;SHT31;58740;50.672;18.690;2023-03-14T03:03:32;6.80;68.67
71082;SHT31;58740;50.672;18.690;2023-03-14T03:05:59;6.75;68.80
71082;SHT31;58740;50.672;18.690;2023-03-14T03:08:28;6.73;68.84
71082;SHT31;58740;50.672;18.690;2023-03-14T03:10:56;6.68;68.92
71082;SHT31;58740;50.672;18.690;2023-03-14T03:13:25;6.63;68.98
71082;SHT31;58740;50.672;18.690;2023-03-14T03:15:54;6.57;69.11
71082;SHT31;58740;50.672;18.690;2023-03-14T03:18:21;6.54;69.23
71082;SHT31;58740;50.672;18.690;2023-03-14T03:20:49;6.50;69.38
71082;SHT31;58740;50.672;18.690;2023-03-14T03:23:17;6.49;69.49
71082;SHT31;58740;50.672;18.690;2023-03-14T03:25:48;6.50;69.62
71082;SHT31;58740;50.672;18.690;2023-03-14T03:28:19;6.49;69.73
71082;SHT31;58740;50.672;18.690;2023-03-14T03:30:47;6.48;69.78
71082;SHT31;58740;50.672;18.690;2023-03-14T03:33:15;6.49;69.70
71082;SHT31;58740;50.672;18.690;2023-03-14T03:35:46;6.47;69.69
71082;SHT31;58740;50.672;18.690;2023-03-14T03:38:17;6.44;69.76
71082;SHT31;58740;50.672;18.690;2023-03-14T03:40:44;6.41;69.86
71082;SHT31;58740;50.672;18.690;2023-03-14T03:43:12;6.39;69.93
71082;SHT31;58740;50.672;18.690;2023-03-14T03:45:40;6.39;69.94
71082;SHT31;58740;50.672;18.690;2023-03-14T03:48:08;6.39;70.00
71082;SHT31;58740;50.672;18.690;2023-03-14T03:50:35;6.41;70.03
71082;SHT31;58740;50.672;18.690;2023-03-14T03:53:03;6.44;70.07
71082;SHT31;58740;50.672;18.690;2023-03-14T03:55:31;6.46;70.10
71082;SHT31;58740;50.672;18.690;2023-03-14T03:57:59;6.49;70.10
71082;SHT31;58740;50.672;18.690;2023-03-14T04:00:27;6.54;70.08
71082;SHT31;58740;50.672;18.690;2023-03-14T04:02:54;6.57;70.09
71082;SHT31;58740;50.672;18.690;2023-03-14T04:05:22;6.59;70.08
71082;SHT31;58740;50.672;18.690;2023-03-14T04:07:50;6.64;70.03
71082;SHT31;58740;50.672;18.690;2023-03-14T04:10:18;6.67;69.99
71082;SHT31;58740;50.672;18.690;2023-03-14T04:12:45;6.71;69.89
71082;SHT31;58740;50.672;18.690;2023-03-14T04:15:13;6.73;69.85
71082;SHT31;58740;50.672;18.690;2023-03-14T04:17:41;6.76;69.70
71082;SHT31;58740;50.672;18.690;2023-03-14T04:20:09;6.79;69.69
71082;SHT31;58740;50.672;18.690;2023-03-14T04:22:40;6.82;69.70
71082;SHT31;58740;50.672;18.690;2023-03-14T04:25:10;6.82;69.68
71082;SHT31;58740;50.672;18.690;2023-03-14T04:27:38;6.83;69.62
71082;SHT31;58740;50.672;18.690;2023-03-14T04:30:06;6.83;69.56
71082;SHT31;58740;50.672;18.690;2023-03-14T04:32:35;6.82;69.49
71082;SHT31;58740;50.672;18.690;2023-03-14T04:35:06;6.82;69.47
71082;SHT31;58740;50.672;18.690;2023-03-14T04:37:34;6.83;69.41
71082;SHT31;58740;50.672;18.690;2023-03-14T04:40:02;6.84;69.40
71082;SHT31;58740;50.672;18.690;2023-03-14T04:42:33;6.89;69.36
71082;SHT31;58740;50.672;18.690;2023-03-14T04:45:01;6.93;69.29
71082;SHT31;58740;50.672;18.690;2023-03-14T04:47:29;6.98;69.22
71082;SHT31;58740;50.672;18.690;2023-03-14T04:49:57;7.02;69.19
71082;SHT31;58740;50.672;18.690;2023-03-14T04:52:25;7.06;69.18
71082;SHT31;58740;50.672;18.690;2023-03-14T04:54:54;7.08;69.18
71082;SHT31;58740;50.672;18.690;2023-03-14T04:57:21;7.10;69.16
71082;SHT31;58740;50.672;18.690;2023-03-14T04:59:49;7.11;69.07
71082;SHT31;58740;50.672;18.690;2023-03-14T05:02:17;7.12;69.01
71082;SHT31;58740;50.672;18.690;2023-03-14T05:04:45;7.11;69.07
71082;SHT31;58740;50.672;18.690;2023-03-14T05:07:12;7.08;69.26
71082;SHT31;58740;50.672;18.690;2023-03-14T05:09:41;7.02;69.35
71082;SHT31;58740;50.672;18.690;2023-03-14T05:12:09;6.99;69.41
71082;SHT31;58740;50.672;18.690;2023-03-14T05:14:36;6.98;69.41
71082;SHT31;58740;50.672;18.690;2023-03-14T05:17:04;7.00;69.40
71082;SHT31;58740;50.672;18.690;2023-03-14T05:19:32;7.03;69.35
71082;SHT31;58740;50.672;18.690;2023-03-14T05:22:02;7.09;69.30
71082;SHT31;58740;50.672;18.690;2023-03-14T05:24:30;7.11;69.31
71082;SHT31;58740;50.672;18.690;2023-03-14T05:26:58;7.13;69.34
71082;SHT31;58740;50.672;18.690;2023-03-14T05:29:26;7.15;69.36
71082;SHT31;58740;50.672;18.690;2023-03-14T05:31:53;7.16;69.32
71082;SHT31;58740;50.672;18.690;2023-03-14T05:34:21;7.18;69.27
71082;SHT31;58740;50.672;18.690;2023-03-14T05:36:49;7.20;69.22
71082;SHT31;58740;50.672;18.690;2023-03-14T05:39:17;7.23;69.22
71082;SHT31;58740;50.672;18.690;2023-03-14T05:41:45;7.24;69.40
71082;SHT31;58740;50.672;18.690;2023-03-14T05:44:12;7.24;69.40
71082;SHT31;58740;50.672;18.690;2023-03-14T05:46:40;7.26;69.36
71082;SHT31;58740;50.672;18.690;2023-03-14T05:49:08;7.31;69.32
71082;SHT31;58740;50.672;18.690;2023-03-14T05:51:36;7.36;69.24
71082;SHT31;58740;50.672;18.690;2023-03-14T05:54:04;7.43;69.11
71082;SHT31;58740;50.672;18.690;2023-03-14T05:56:32;7.48;69.13
71082;SHT31;58740;50.672;18.690;2023-03-14T05:59:00;7.51;69.10
71082;SHT31;58740;50.672;18.690;2023-03-14T06:01:30;7.55;69.07
71082;SHT31;58740;50.672;18.690;2023-03-14T06:03:58;7.59;69.06
71082;SHT31;58740;50.672;18.690;2023-03-14T06:06:25;7.60;68.99
71082;SHT31;58740;50.672;18.690;2023-03-14T06:08:53;7.61;68.96
71082;SHT31;58740;50.672;18.690;2023-03-14T06:11:21;7.65;68.82
71082;SHT31;58740;50.672;18.690;2023-03-14T06:13:49;7.68;68.67
71082;SHT31;58740;50.672;18.690;2023-03-14T06:16:17;7.73;68.44
71082;SHT31;58740;50.672;18.690;2023-03-14T06:18:45;7.80;68.31
71082;SHT31;58740;50.672;18.690;2023-03-14T06:21:14;7.87;68.24
71082;SHT31;58740;50.672;18.690;2023-03-14T06:23:45;7.94;68.12
71082;SHT31;58740;50.672;18.690;2023-03-14T06:26:13;7.97;68.02
71082;SHT31;58740;50.672;18.690;2023-03-14T06:28:40;8.01;67.66
71082;SHT31;58740;50.672;18.690;2023-03-14T06:31:08;8.04;67.59
71082;SHT31;58740;50.672;18.690;2023-03-14T06:33:36;8.06;67.57
71082;SHT31;58740;50.672;18.690;2023-03-14T06:36:04;8.09;67.56
71082;SHT31;58740;50.672;18.690;2023-03-14T06:38:32;8.09;67.49
71082;SHT31;58740;50.672;18.690;2023-03-14T06:41:03;8.10;67.43
71082;SHT31;58740;50.672;18.690;2023-03-14T06:43:32;8.10;67.43
71082;SHT31;58740;50.672;18.690;2023-03-14T06:46:00;8.15;67.38
71082;SHT31;58740;50.672;18.690;2023-03-14T06:48:28;8.20;67.18
71082;SHT31;58740;50.672;18.690;2023-03-14T06:50:57;8.27;67.17
71082;SHT31;58740;50.672;18.690;2023-03-14T06:53:24;8.33;67.00
71082;SHT31;58740;50.672;18.690;2023-03-14T06:55:52;8.39;66.89
71082;SHT31;58740;50.672;18.690;2023-03-14T06:58:20;8.44;67.06
71082;SHT31;58740;50.672;18.690;2023-03-14T07:00:48;8.48;66.87
71082;SHT31;58740;50.672;18.690;2023-03-14T07:03:16;8.52;66.70
71082;SHT31;58740;50.672;18.690;2023-03-14T07:05:44;8.54;66.71
71082;SHT31;58740;50.672;18.690;2023-03-14T07:08:11;8.55;66.66
71082;SHT31;58740;50.672;18.690;2023-03-14T07:10:39;8.57;66.59
71082;SHT31;58740;50.672;18.690;2023-03-14T07:13:07;8.60;66.67
71082;SHT31;58740;50.672;18.690;2023-03-14T07:15:35;8.65;66.51
71082;SHT31;58740;50.672;18.690;2023-03-14T07:18:03;8.72;66.27
71082;SHT31;58740;50.672;18.690;2023-03-14T07:20:31;8.81;65.71
71082;SHT31;58740;50.672;18.690;2023-03-14T07:22:59;8.90;65.43
71082;SHT31;58740;50.672;18.690;2023-03-14T07:25:27;9.00;65.34
71082;SHT31;58740;50.672;18.690;2023-03-14T07:27:55;9.05;65.66
71082;SHT31;58740;50.672;18.690;2023-03-14T07:30:23;9.11;65.46
71082;SHT31;58740;50.672;18.690;2023-03-14T07:32:51;9.18;65.31
71082;SHT31;58740;50.672;18.690;2023-03-14T07:35:19;9.24;65.36
71082;SHT31;58740;50.672;18.690;2023-03-14T07:37:47;9.30;65.12
71082;SHT31;58740;50.672;18.690;2023-03-14T07:40:14;9.35;65.03
71082;SHT31;58740;50.672;18.690;2023-03-14T07:42:42;9.42;64.81
71082;SHT31;58740;50.672;18.690;2023-03-14T07:45:11;9.48;64.89
71082;SHT31;58740;50.672;18.690;2023-03-14T07:47:39;9.55;64.22
71082;SHT31;58740;50.672;18.690;2023-03-14T07:50:07;9.60;64.21
71082;SHT31;58740;50.672;18.690;2023-03-14T07:52:35;9.64;64.34
71082;SHT31;58740;50.672;18.690;2023-03-14T07:55:03;9.72;63.98
71082;SHT31;58740;50.672;18.690;2023-03-14T07:57:31;9.79;63.64
71082;SHT31;58740;50.672;18.690;2023-03-14T07:59:59;9.84;63.61
71082;SHT31;58740;50.672;18.690;2023-03-14T08:02:27;9.88;63.41
71082;SHT31;58740;50.672;18.690;2023-03-14T08:04:55;9.91;63.21
71082;SHT31;58740;50.672;18.690;2023-03-14T08:07:23;9.93;63.04
71082;SHT31;58740;50.672;18.690;2023-03-14T08:09:51;9.95;62.92
71082;SHT31;58740;50.672;18.690;2023-03-14T08:12:18;9.99;63.00
71082;SHT31;58740;50.672;18.690;2023-03-14T08:14:46;10.01;63.44
71082;SHT31;58740;50.672;18.690;2023-03-14T08:17:14;10.03;63.16
71082;SHT31;58740;50.672;18.690;2023-03-14T08:19:42;10.06;63.27
71082;SHT31;58740;50.672;18.690;2023-03-14T08:22:10;10.09;63.46
71082;SHT31;58740;50.672;18.690;2023-03-14T08:24:37;10.10;63.63
71082;SHT31;58740;50.672;18.690;2023-03-14T08:27:05;10.13;63.08
71082;SHT31;58740;50.672;18.690;2023-03-14T08:29:37;10.15;62.87
71082;SHT31;58740;50.672;18.690;2023-03-14T08:32:05;10.16;62.83
71082;SHT31;58740;50.672;18.690;2023-03-14T08:34:33;10.16;62.68
71082;SHT31;58740;50.672;18.690;2023-03-14T08:37:01;10.18;62.18
71082;SHT31;58740;50.672;18.690;2023-03-14T08:39:32;10.17;62.77
71082;SHT31;58740;50.672;18.690;2023-03-14T08:42:00;10.14;62.50
71082;SHT31;58740;50.672;18.690;2023-03-14T08:44:28;10.14;62.31
71082;SHT31;58740;50.672;18.690;2023-03-14T08:46:56;10.14;62.47
71082;SHT31;58740;50.672;18.690;2023-03-14T08:49:24;10.12;62.44
71082;SHT31;58740;50.672;18.690;2023-03-14T08:51:52;10.11;62.61
71082;SHT31;58740;50.672;18.690;2023-03-14T08:54:19;10.10;62.69
71082;SHT31;58740;50.672;18.690;2023-03-14T08:56:47;10.09;62.92
71082;SHT31;58740;50.672;18.690;2023-03-14T08:59:15;10.09;62.96
71082;SHT31;58740;50.672;18.690;2023-03-14T09:01:44;10.11;63.01
71082;SHT31;58740;50.672;18.690;2023-03-14T09:04:12;10.13;63.09
71082;SHT31;58740;50.672;18.690;2023-03-14T09:06:40;10.16;63.07
71082;SHT31;58740;50.672;18.690;2023-03-14T09:09:09;10.18;62.88
71082;SHT31;58740;50.672;18.690;2023-03-14T09:11:37;10.19;62.59
71082;SHT31;58740;50.672;18.690;2023-03-14T09:14:05;10.22;62.72
71082;SHT31;58740;50.672;18.690;2023-03-14T09:16:33;10.23;62.91
71082;SHT31;58740;50.672;18.690;2023-03-14T09:19:01;10.23;63.03
71082;SHT31;58740;50.672;18.690;2023-03-14T09:21:29;10.24;62.96
71082;SHT31;58740;50.672;18.690;2023-03-14T09:23:57;10.23;62.89
71082;SHT31;58740;50.672;18.690;2023-03-14T09:26:24;10.23;63.04
71082;SHT31;58740;50.672;18.690;2023-03-14T09:28:52;10.23;63.12
71082;SHT31;58740;50.672;18.690;2023-03-14T09:31:20;10.23;63.29
71082;SHT31;58740;50.672;18.690;2023-03-14T09:33:48;10.25;63.33
71082;SHT31;58740;50.672;18.690;2023-03-14T09:36:15;10.27;62.99
71082;SHT31;58740;50.672;18.690;2023-03-14T09:38:43;10.31;63.16
71082;SHT31;58740;50.672;18.690;2023-03-14T09:41:15;10.35;63.00
71082;SHT31;58740;50.672;18.690;2023-03-14T09:43:58;10.39;62.98
71082;SHT31;58740;50.672;18.690;2023-03-14T09:46:44;10.41;62.71
71082;SHT31;58740;50.672;18.690;2023-03-14T09:49:22;10.42;62.97
71082;SHT31;58740;50.672;18.690;2023-03-14T09:51:56;10.43;62.99
71082;SHT31;58740;50.672;18.690;2023-03-14T09:54:44;10.45;63.04
71082;SHT31;58740;50.672;18.690;2023-03-14T09:57:18;10.47;63.45
71082;SHT31;58740;50.672;18.690;2023-03-14T09:59:52;10.48;63.68
71082;SHT31;58740;50.672;18.690;2023-03-14T10:02:34;10.52;63.54
71082;SHT31;58740;50.672;18.690;2023-03-14T10:05:05;10.55;63.35
71082;SHT31;58740;50.672;18.690;2023-03-14T10:07:42;10.60;63.48
71082;SHT31;58740;50.672;18.690;2023-03-14T10:10:19;10.66;63.60
71082;SHT31;58740;50.672;18.690;2023-03-14T10:12:59;10.74;63.22
71082;SHT31;58740;50.672;18.690;2023-03-14T10:15:41;10.79;63.12
71082;SHT31;58740;50.672;18.690;2023-03-14T10:18:15;10.84;63.15
71082;SHT31;58740;50.672;18.690;2023-03-14T10:20:44;10.86;63.18
71082;SHT31;58740;50.672;18.690;2023-03-14T10:25:43;10.92;62.56
71082;SHT31;58740;50.672;18.690;2023-03-14T10:28:26;10.91;62.84
71082;SHT31;58740;50.672;18.690;2023-03-14T10:30:58;10.90;63.05
71082;SHT31;58740;50.672;18.690;2023-03-14T10:33:30;10.86;62.84
71082;SHT31;58740;50.672;18.690;2023-03-14T10:36:05;10.84;62.69
71082;SHT31;58740;50.672;18.690;2023-03-14T10:38:35;10.80;63.18
71082;SHT31;58740;50.672;18.690;2023-03-14T10:41:14;10.75;63.75
71082;SHT31;58740;50.672;18.690;2023-03-14T10:43:51;10.69;64.63
71082;SHT31;58740;50.672;18.690;2023-03-14T10:46:25;10.61;65.34
71082;SHT31;58740;50.672;18.690;2023-03-14T10:48:57;10.55;66.11
71082;SHT31;58740;50.672;18.690;2023-03-14T10:51:26;10.49;66.88
71082;SHT31;58740;50.672;18.690;2023-03-14T10:53:58;10.44;67.65
71082;SHT31;58740;50.672;18.690;2023-03-14T10:56:34;10.39;68.26
71082;SHT31;58740;50.672;18.690;2023-03-14T10:59:11;10.35;68.71
71082;SHT31;58740;50.672;18.690;2023-03-14T11:07:28;10.21;69.81
71082;SHT31;58740;50.672;18.690;2023-03-14T11:18:44;10.08;71.40
71082;SHT31;58740;50.672;18.690;2023-03-14T11:24:32;10.07;71.96
71082;SHT31;58740;50.672;18.690;2023-03-14T11:27:21;10.05;72.15
71082;SHT31;58740;50.672;18.690;2023-03-14T11:33:04;10.00;72.46
71082;SHT31;58740;50.672;18.690;2023-03-14T11:38:43;9.95;73.11
71082;SHT31;58740;50.672;18.690;2023-03-14T11:41:17;9.97;73.08
71082;SHT31;58740;50.672;18.690;2023-03-14T11:43:56;9.98;73.15
71082;SHT31;58740;50.672;18.690;2023-03-14T11:46:28;9.98;73.21
71082;SHT31;58740;50.672;18.690;2023-03-14T11:51:59;9.94;73.66
71082;SHT31;58740;50.672;18.690;2023-03-14T11:54:39;9.91;73.74
71082;SHT31;58740;50.672;18.690;2023-03-14T11:57:20;9.90;73.81
71082;SHT31;58740;50.672;18.690;2023-03-14T12:14:19;10.01;74.48
71082;SHT31;58740;50.672;18.690;2023-03-14T12:16:52;10.02;74.52
71082;SHT31;58740;50.672;18.690;2023-03-14T12:19:27;10.01;74.56
71082;SHT31;58740;50.672;18.690;2023-03-14T12:22:18;10.03;74.42
71082;SHT31;58740;50.672;18.690;2023-03-14T12:24:55;10.08;74.57
71082;SHT31;58740;50.672;18.690;2023-03-14T12:28:33;10.13;74.47
71082;SHT31;58740;50.672;18.690;2023-03-14T12:30:46;10.16;74.47
71082;SHT31;58740;50.672;18.690;2023-03-14T12:38:27;10.10;74.83
71082;SHT31;58740;50.672;18.690;2023-03-14T12:43:49;10.07;75.03
71082;SHT31;58740;50.672;18.690;2023-03-14T12:48:46;10.08;74.99
71082;SHT31;58740;50.672;18.690;2023-03-14T12:51:35;10.08;75.57
71082;SHT31;58740;50.672;18.690;2023-03-14T12:59:38;10.11;75.46
71082;SHT31;58740;50.672;18.690;2023-03-14T13:02:22;10.10;75.37
71082;SHT31;58740;50.672;18.690;2023-03-14T13:05:26;10.11;75.68
71082;SHT31;58740;50.672;18.690;2023-03-14T13:10:27;10.11;75.79
71082;SHT31;58740;50.672;18.690;2023-03-14T13:13:40;10.07;75.89
71082;SHT31;58740;50.672;18.690;2023-03-14T13:16:02;10.03;76.12
71082;SHT31;58740;50.672;18.690;2023-03-14T13:18:37;10.01;76.02
71082;SHT31;58740;50.672;18.690;2023-03-14T13:21:21;10.02;76.30
71082;SHT31;58740;50.672;18.690;2023-03-14T13:24:03;10.00;76.57
71082;SHT31;58740;50.672;18.690;2023-03-14T13:26:48;10.00;76.45
71082;SHT31;58740;50.672;18.690;2023-03-14T13:29:20;10.02;76.65
71082;SHT31;58740;50.672;18.690;2023-03-14T13:32:02;10.01;76.82
71082;SHT31;58740;50.672;18.690;2023-03-14T13:34:46;10.01;76.87
71082;SHT31;58740;50.672;18.690;2023-03-14T13:37:16;9.98;77.02
71082;SHT31;58740;50.672;18.690;2023-03-14T13:39:52;9.96;77.22
71082;SHT31;58740;50.672;18.690;2023-03-14T13:42:27;9.95;77.10
71082;SHT31;58740;50.672;18.690;2023-03-14T13:44:57;9.95;76.98
71082;SHT31;58740;50.672;18.690;2023-03-14T13:47:25;9.96;77.19
71082;SHT31;58740;50.672;18.690;2023-03-14T13:49:53;9.98;77.30
71082;SHT31;58740;50.672;18.690;2023-03-14T13:52:32;10.00;77.39
71082;SHT31;58740;50.672;18.690;2023-03-14T13:55:04;9.99;77.46
71082;SHT31;58740;50.672;18.690;2023-03-14T14:00:19;10.00;77.59
71082;SHT31;58740;50.672;18.690;2023-03-14T14:02:55;10.01;77.82
71082;SHT31;58740;50.672;18.690;2023-03-14T14:05:27;10.02;78.00
71082;SHT31;58740;50.672;18.690;2023-03-14T14:07:58;10.03;77.96
71082;SHT31;58740;50.672;18.690;2023-03-14T14:10:26;10.07;77.80
71082;SHT31;58740;50.672;18.690;2023-03-14T14:13:01;10.08;77.84
71082;SHT31;58740;50.672;18.690;2023-03-14T14:15:33;10.10;77.82
71082;SHT31;58740;50.672;18.690;2023-03-14T14:18:11;10.11;77.67
71082;SHT31;58740;50.672;18.690;2023-03-14T14:20:45;10.12;77.73
71082;SHT31;58740;50.672;18.690;2023-03-14T14:23:18;10.13;77.79
71082;SHT31;58740;50.672;18.690;2023-03-14T14:25:53;10.13;77.78
71082;SHT31;58740;50.672;18.690;2023-03-14T14:28:27;10.16;77.71
71082;SHT31;58740;50.672;18.690;2023-03-14T14:33:56;10.21;78.11
71082;SHT31;58740;50.672;18.690;2023-03-14T14:36:36;10.22;77.93
71082;SHT31;58740;50.672;18.690;2023-03-14T14:41:53;10.24;78.00
71082;SHT31;58740;50.672;18.690;2023-03-14T14:44:28;10.23;77.90
71082;SHT31;58740;50.672;18.690;2023-03-14T14:47:03;10.23;77.73
71082;SHT31;58740;50.672;18.690;2023-03-14T14:49:32;10.23;77.80
71082;SHT31;58740;50.672;18.690;2023-03-14T14:52:08;10.21;77.86
71082;SHT31;58740;50.672;18.690;2023-03-14T14:57:20;10.23;77.71
71082;SHT31;58740;50.672;18.690;2023-03-14T14:59:54;10.24;77.73
71082;SHT31;58740;50.672;18.690;2023-03-14T15:05:15;10.24;77.74
71082;SHT31;58740;50.672;18.690;2023-03-14T15:07:46;10.23;77.94
71082;SHT31;58740;50.672;18.690;2023-03-14T15:10:16;10.23;77.83
71082;SHT31;58740;50.672;18.690;2023-03-14T15:12:47;10.23;77.79
71082;SHT31;58740;50.672;18.690;2023-03-14T15:15:15;10.21;77.82
71082;SHT31;58740;50.672;18.690;2023-03-14T15:17:44;10.21;77.78
71082;SHT31;58740;50.672;18.690;2023-03-14T15:20:13;10.23;77.80
71082;SHT31;58740;50.672;18.690;2023-03-14T15:22:43;10.26;77.66
71082;SHT31;58740;50.672;18.690;2023-03-14T15:25:11;10.28;77.50
71082;SHT31;58740;50.672;18.690;2023-03-14T15:27:59;10.32;77.60
71082;SHT31;58740;50.672;18.690;2023-03-14T15:30:27;10.32;77.59
71082;SHT31;58740;50.672;18.690;2023-03-14T15:32:55;10.33;77.69
71082;SHT31;58740;50.672;18.690;2023-03-14T15:35:23;10.32;77.71
71082;SHT31;58740;50.672;18.690;2023-03-14T15:37:51;10.32;77.68
71082;SHT31;58740;50.672;18.690;2023-03-14T15:40:18;10.30;77.78
71082;SHT31;58740;50.672;18.690;2023-03-14T15:42:57;10.30;77.78
71082;SHT31;58740;50.672;18.690;2023-03-14T15:45:24;10.31;77.60
71082;SHT31;58740;50.672;18.690;2023-03-14T15:47:52;10.31;77.57
71082;SHT31;58740;50.672;18.690;2023-03-14T15:50:20;10.32;77.49
71082;SHT31;58740;50.672;18.690;2023-03-14T15:52:48;10.33;77.43
71082;SHT31;58740;50.672;18.690;2023-03-14T15:55:16;10.33;77.34
71082;SHT31;58740;50.672;18.690;2023-03-14T15:57:44;10.33;77.25
71082;SHT31;58740;50.672;18.690;2023-03-14T16:00:13;10.34;77.19
71082;SHT31;58740;50.672;18.690;2023-03-14T16:02:46;10.35;77.12
71082;SHT31;58740;50.672;18.690;2023-03-14T16:05:13;10.34;77.02
71082;SHT31;58740;50.672;18.690;2023-03-14T16:07:42;10.33;76.94
71082;SHT31;58740;50.672;18.690;2023-03-14T16:10:12;10.33;77.00
71082;SHT31;58740;50.672;18.690;2023-03-14T16:12:41;10.34;77.06
71082;SHT31;58740;50.672;18.690;2023-03-14T16:15:09;10.34;77.01
71082;SHT31;58740;50.672;18.690;2023-03-14T16:17:37;10.34;77.07
71082;SHT31;58740;50.672;18.690;2023-03-14T16:20:07;10.32;77.07
71082;SHT31;58740;50.672;18.690;2023-03-14T16:22:36;10.28;77.15
71082;SHT31;58740;50.672;18.690;2023-03-14T16:25:05;10.27;77.17
71082;SHT31;58740;50.672;18.690;2023-03-14T16:27:35;10.25;77.11
71082;SHT31;58740;50.672;18.690;2023-03-14T16:30:03;10.26;77.07
71082;SHT31;58740;50.672;18.690;2023-03-14T16:32:32;10.25;77.08
71082;SHT31;58740;50.672;18.690;2023-03-14T16:35:00;10.22;77.27
71082;SHT31;58740;50.672;18.690;2023-03-14T16:37:28;10.17;77.22
71082;SHT31;58740;50.672;18.690;2023-03-14T16:39:56;10.13;77.21
71082;SHT31;58740;50.672;18.690;2023-03-14T16:42:40;10.10;77.39
71082;SHT31;58740;50.672;18.690;2023-03-14T16:45:28;10.06;77.44
71082;SHT31;58740;50.672;18.690;2023-03-14T16:47:56;10.02;77.53
71082;SHT31;58740;50.672;18.690;2023-03-14T16:50:24;10.01;77.52
71082;SHT31;58740;50.672;18.690;2023-03-14T16:52:52;10.01;77.39
71082;SHT31;58740;50.672;18.690;2023-03-14T16:55:21;10.01;77.47
71082;SHT31;58740;50.672;18.690;2023-03-14T16:57:49;9.98;77.48
71082;SHT31;58740;50.672;18.690;2023-03-14T17:00:17;9.98;77.42
71082;SHT31;58740;50.672;18.690;2023-03-14T17:02:46;9.95;77.48
71082;SHT31;58740;50.672;18.690;2023-03-14T17:05:14;9.92;77.50
71082;SHT31;58740;50.672;18.690;2023-03-14T17:07:41;9.91;77.57
71082;SHT31;58740;50.672;18.690;2023-03-14T17:10:09;9.86;77.76
71082;SHT31;58740;50.672;18.690;2023-03-14T17:12:37;9.85;77.70
71082;SHT31;58740;50.672;18.690;2023-03-14T17:15:05;9.83;77.78
71082;SHT31;58740;50.672;18.690;2023-03-14T17:17:34;9.79;78.01
71082;SHT31;58740;50.672;18.690;2023-03-14T17:20:03;9.73;78.22
71082;SHT31;58740;50.672;18.690;2023-03-14T17:22:34;9.70;78.37